createdAt,value
2023-04-02T00:02:14.112Z,8.04
2023-04-02T00:07:33.492Z,8.07
2023-04-02T00:12:53.051Z,8.03
2023-04-02T00:18:12.157Z,8.06
2023-04-02T00:23:30.953Z,8.04
2023-04-02T00:28:49.932Z,8.03
2023-04-02T00:34:09.342Z,8.01
2023-04-02T00:39:28.382Z,8.01
2023-04-02T00:44:47.533Z,8.01
2023-04-02T00:50:06.840Z,8.03
2023-04-02T00:55:26.087Z,7.98
2023-04-02T01:00:45.372Z,8.01
2023-04-02T01:06:04.356Z,8.01
2023-04-02T01:11:23.293Z,8.01
2023-04-02T01:16:42.064Z,8
2023-04-02T01:22:01.802Z,8.01
2023-04-02T01:27:21.272Z,8
2023-04-02T01:32:40.337Z,8
2023-04-02T01:43:19.044Z,8.01
2023-04-02T01:48:37.906Z,8.01
2023-04-02T01:53:57.244Z,8.01
2023-04-02T01:59:16.787Z,8.01
2023-04-02T02:04:36.198Z,8.04
2023-04-02T02:09:56.015Z,8.01
2023-04-02T02:15:14.603Z,8.01
2023-04-02T02:20:34.231Z,8.03
2023-04-02T02:31:13.114Z,8.01
2023-04-02T02:36:32.185Z,8.01
2023-04-02T02:41:51.601Z,8.01
2023-04-02T02:47:10.839Z,8.03
2023-04-02T02:52:30.073Z,8.01
2023-04-02T02:57:49.416Z,8.06
2023-04-02T03:03:08.708Z,8.04
2023-04-02T03:08:28.025Z,8.04
2023-04-02T03:19:06.874Z,8.01
2023-04-02T03:24:26.342Z,8.01
2023-04-02T03:29:45.604Z,8
2023-04-02T03:35:04.705Z,8.01
2023-04-02T03:40:23.928Z,8.01
2023-04-02T03:45:42.945Z,8
2023-04-02T03:51:02.058Z,7.98
2023-04-02T03:56:20.717Z,8.03
2023-04-02T04:01:39.846Z,8.03
2023-04-02T04:06:59.473Z,8.01
2023-04-02T04:12:18.780Z,8.01
2023-04-02T04:17:38.055Z,7.98
2023-04-02T04:22:57.288Z,7.98
2023-04-02T04:33:35.258Z,7.96
2023-04-02T04:38:54.577Z,7.93
2023-04-02T04:44:14.297Z,7.93
2023-04-02T04:49:33.226Z,7.91
2023-04-02T04:54:52.272Z,7.91
2023-04-02T05:00:11.793Z,7.94
2023-04-02T05:05:31.442Z,7.93
2023-04-02T05:10:50.499Z,7.93
2023-04-02T05:16:09.588Z,7.94
2023-04-02T05:21:29.226Z,7.94
2023-04-02T05:26:48.072Z,7.94
2023-04-02T05:32:07.850Z,7.96
2023-04-02T05:42:46.663Z,7.98
2023-04-02T05:48:05.537Z,8.01
2023-04-02T05:53:24.987Z,8.01
2023-04-02T05:58:45.621Z,8.07
2023-04-02T06:04:04.432Z,8.08
2023-04-02T06:14:42.941Z,8.2
2023-04-02T06:20:02.154Z,8.24
2023-04-02T06:30:40.785Z,8.37
2023-04-02T06:36:00.321Z,8.42
2023-04-02T06:41:19.269Z,8.47
2023-04-02T06:46:38.601Z,8.5
2023-04-02T06:57:17.418Z,8.6
2023-04-02T07:02:37.066Z,8.62
2023-04-02T07:08:21.557Z,8.78
2023-04-02T07:13:40.457Z,8.72
2023-04-02T07:18:59.453Z,8.72
2023-04-02T07:24:18.312Z,8.75
2023-04-02T07:29:37.509Z,8.85
2023-04-02T07:34:56.619Z,8.95
2023-04-02T07:45:35.007Z,9.18
2023-04-02T07:50:54.172Z,9.29
2023-04-02T07:56:13.401Z,9.39
2023-04-02T08:01:32.219Z,9.43
2023-04-02T08:06:51.904Z,9.42
2023-04-02T08:12:11.589Z,9.39
2023-04-02T08:17:30.585Z,9.32
2023-04-02T08:28:09.846Z,9.35
2023-04-02T08:33:28.956Z,9.22
2023-04-02T08:38:48.055Z,9.13
2023-04-02T08:44:07.388Z,9.1
2023-04-02T08:49:26.165Z,9.14
2023-04-02T08:54:45.508Z,9.14
2023-04-02T09:00:05.068Z,9.18
2023-04-02T09:05:24.694Z,9.18
2023-04-02T09:10:44.184Z,9.09
2023-04-02T09:16:03.667Z,9.08
2023-04-02T09:26:42.802Z,9.14
2023-04-02T09:32:01.732Z,9.14
2023-04-02T09:37:21.175Z,9.22
2023-04-02T09:42:40.161Z,9.35
2023-04-02T09:47:59.307Z,9.5
2023-04-02T09:53:18.520Z,9.63
2023-04-02T10:03:56.645Z,9.84
2023-04-02T10:09:16.237Z,9.93
2023-04-02T10:14:35.771Z,10.07
2023-04-02T10:19:55.308Z,10.07
2023-04-02T10:25:14.516Z,9.97
2023-04-02T10:30:33.414Z,9.89
2023-04-02T10:35:52.218Z,9.87
2023-04-02T10:46:30.529Z,10.02
2023-04-02T10:51:50.053Z,10.17
2023-04-02T10:57:08.967Z,10.2
2023-04-02T11:02:27.936Z,10.22
2023-04-02T11:07:47.011Z,10.28
2023-04-02T11:13:05.467Z,10.25
2023-04-02T11:18:24.708Z,10.2
2023-04-02T11:23:44.390Z,10.18
2023-04-02T11:29:03.356Z,10.18
2023-04-02T11:34:23.205Z,10.17
2023-04-02T11:39:42.242Z,10.17
2023-04-02T11:45:01.561Z,10.28
2023-04-02T11:50:20.476Z,10.34
2023-04-02T11:55:39.665Z,10.35
2023-04-02T12:00:58.972Z,10.34
2023-04-02T12:11:36.987Z,10.44
2023-04-02T12:16:56.765Z,10.37
2023-04-02T12:22:15.777Z,10.31
2023-04-02T12:27:34.593Z,10.25
2023-04-02T12:32:53.847Z,10.35
2023-04-02T12:38:13.138Z,10.35
2023-04-02T12:43:32.371Z,10.34
2023-04-02T12:48:51.474Z,10.34
2023-04-02T12:54:10.624Z,10.31
2023-04-02T12:59:29.785Z,10.35
2023-04-02T13:10:08.229Z,10.28
2023-04-02T13:15:28.362Z,10.37
2023-04-02T13:20:47.211Z,10.34
2023-04-02T13:26:06.379Z,10.28
2023-04-02T13:31:25.640Z,10.31
2023-04-02T13:36:44.919Z,10.31
2023-04-02T13:42:04.613Z,10.32
2023-04-02T13:47:24.100Z,10.22
2023-04-02T13:52:43.506Z,10.18
2023-04-02T13:58:03.046Z,10.12
2023-04-02T14:03:21.080Z,10.07
2023-04-02T14:08:40.352Z,9.97
2023-04-02T14:13:59.963Z,9.81
2023-04-02T14:19:19.003Z,9.72
2023-04-02T14:24:38.575Z,9.68
2023-04-02T14:29:57.432Z,9.6
2023-04-02T14:35:16.970Z,9.6
2023-04-02T14:40:36.315Z,9.54
2023-04-02T14:45:54.708Z,9.51
2023-04-02T14:51:13.881Z,9.49
2023-04-02T14:56:33.534Z,9.39
2023-04-02T15:01:52.465Z,9.37
2023-04-02T15:07:12.551Z,9.25
2023-04-02T15:12:32.279Z,9.16
2023-04-02T15:17:51.082Z,9.1
2023-04-02T15:23:10.950Z,8.99
2023-04-02T15:33:48.358Z,9.03
2023-04-02T15:39:07.036Z,8.92
2023-04-02T15:44:26.992Z,8.75
2023-04-02T15:49:45.657Z,8.6
2023-04-02T15:55:05.318Z,8.5
2023-04-02T16:00:32.277Z,8.41
2023-04-02T16:05:44.590Z,8.3
2023-04-02T16:11:02.743Z,8.18
2023-04-02T16:16:22.295Z,8.01
2023-04-02T16:21:41.483Z,7.82
2023-04-02T16:27:00.849Z,7.67
2023-04-02T16:32:20.125Z,7.49
2023-04-02T16:37:38.850Z,7.42
2023-04-02T16:42:58.188Z,7.43
2023-04-02T16:53:36.347Z,7.26
2023-04-02T17:04:15.647Z,7.09
2023-04-02T17:09:34.711Z,6.99
2023-04-02T17:14:53.419Z,6.84
2023-04-02T17:20:12.276Z,6.73
2023-04-02T17:25:31.630Z,6.71
2023-04-02T17:36:10.331Z,6.51
2023-04-02T17:41:29.740Z,6.41
2023-04-02T17:46:49.238Z,6.33
2023-04-02T17:52:09.022Z,6.3
2023-04-02T18:02:48.018Z,6.14
2023-04-02T18:08:06.570Z,6.09
2023-04-02T18:18:44.456Z,6
2023-04-02T18:24:04.764Z,5.98
2023-04-02T18:29:23.425Z,5.92
2023-04-02T18:34:42.534Z,5.86
2023-04-02T18:40:01.659Z,5.79
2023-04-02T18:45:20.942Z,5.76
2023-04-02T18:50:40.604Z,5.69
2023-04-02T18:56:00.203Z,5.7
2023-04-02T19:01:19.601Z,5.68
2023-04-02T19:06:38.403Z,5.69
2023-04-02T19:11:57.725Z,5.63
2023-04-02T19:17:17.085Z,5.55
2023-04-02T19:22:35.724Z,5.55
2023-04-02T19:27:54.645Z,5.56
2023-04-02T19:33:14.004Z,5.45
2023-04-02T19:38:33.270Z,5.45
2023-04-02T19:43:53.307Z,5.45
2023-04-02T19:49:12.528Z,5.44
2023-04-02T19:59:50.748Z,5.37
2023-04-02T20:05:10.140Z,5.34
2023-04-02T20:10:29.145Z,5.3
2023-04-02T20:15:49.210Z,5.25
2023-04-02T20:21:07.555Z,5.21
2023-04-02T20:26:26.851Z,5.15
2023-04-02T20:31:46.272Z,5.08
2023-04-02T20:37:05.811Z,5.14
2023-04-02T20:42:25.934Z,5.1
2023-04-02T20:47:44.457Z,5.07
2023-04-02T20:53:03.581Z,4.96
2023-04-02T20:58:23.483Z,4.94
2023-04-02T21:03:42.280Z,4.91
2023-04-02T21:09:01.444Z,4.88
2023-04-02T21:14:21.316Z,4.84
2023-04-02T21:24:59.251Z,4.76
2023-04-02T21:30:18.693Z,4.71
2023-04-02T21:35:38.005Z,4.57
2023-04-02T21:40:57.491Z,4.42
2023-04-02T21:46:17.073Z,4.3
2023-04-02T21:51:36.824Z,4.19
2023-04-02T21:56:56.588Z,4.08
2023-04-02T22:07:34.696Z,3.77
2023-04-02T22:12:54.265Z,3.67
2023-04-02T22:18:13.585Z,3.65
2023-04-02T22:23:32.529Z,3.68
2023-04-02T22:28:51.640Z,3.72
2023-04-02T22:34:10.769Z,3.77
2023-04-02T22:39:29.872Z,3.81
2023-04-02T22:50:07.602Z,3.89
2023-04-02T23:00:46.570Z,3.95
2023-04-02T23:06:05.331Z,3.94
2023-04-02T23:11:24.373Z,3.92
2023-04-02T23:16:43.520Z,3.94
2023-04-02T23:22:03.193Z,3.98
2023-04-02T23:27:22.321Z,3.96
2023-04-02T23:32:41.461Z,3.96
2023-04-02T23:43:20.083Z,3.91
2023-04-02T23:53:58.660Z,3.94
2023-04-02T23:59:17.978Z,3.92
